createdAt,value
2022-09-28T00:00:11.771Z,0.73
2022-09-28T00:02:38.930Z,0.87
2022-09-28T00:05:05.566Z,0.80
2022-09-28T00:07:31.854Z,0.90
2022-09-28T00:09:58.162Z,1.10
2022-09-28T00:12:24.771Z,0.80
2022-09-28T00:14:51.117Z,0.83
2022-09-28T00:17:20.396Z,0.90
2022-09-28T00:19:47.058Z,0.90
2022-09-28T00:22:13.353Z,0.77
2022-09-28T00:24:39.653Z,1.13
2022-09-28T00:27:06.038Z,0.70
2022-09-28T00:29:34.173Z,0.90
2022-09-28T00:32:03.309Z,0.90
2022-09-28T00:34:34.668Z,1.00
2022-09-28T00:37:02.211Z,0.73
2022-09-28T00:39:31.413Z,0.70
2022-09-28T00:41:58.158Z,1.10
2022-09-28T00:44:24.381Z,1.30
2022-09-28T00:46:58.404Z,1.10
2022-09-28T00:49:43.287Z,1.00
2022-09-28T00:52:13.318Z,0.50
2022-09-28T00:54:39.853Z,0.70
2022-09-28T00:57:06.175Z,0.60
2022-09-28T00:59:32.558Z,1.13
2022-09-28T01:01:58.955Z,0.70
2022-09-28T01:04:29.736Z,0.97
2022-09-28T01:06:57.314Z,0.90
2022-09-28T01:09:25.521Z,0.90
2022-09-28T01:11:51.923Z,0.70
2022-09-28T01:14:19.090Z,1.07
2022-09-28T01:16:55.496Z,0.90
2022-09-28T01:19:43.613Z,0.70
2022-09-28T01:22:28.399Z,0.70
2022-09-28T01:25:38.747Z,0.60
2022-09-28T01:28:08.675Z,0.70
2022-09-28T01:30:42.371Z,0.60
2022-09-28T01:33:12.641Z,0.60
2022-09-28T01:35:43.238Z,0.60
2022-09-28T01:38:17.355Z,0.70
2022-09-28T01:40:44.611Z,0.50
2022-09-28T01:43:15.573Z,0.53
2022-09-28T01:45:48.123Z,0.70
2022-09-28T01:48:19.689Z,0.63
2022-09-28T01:50:48.398Z,0.60
2022-09-28T01:53:22.637Z,0.70
2022-09-28T01:55:52.911Z,0.77
2022-09-28T01:58:32.982Z,0.80
2022-09-28T02:01:10.637Z,0.60
2022-09-28T02:03:45.885Z,0.60
2022-09-28T02:06:16.613Z,0.60
2022-09-28T02:08:55.499Z,0.60
2022-09-28T02:11:22.377Z,0.60
2022-09-28T02:13:53.735Z,0.80
2022-09-28T02:16:45.810Z,0.53
2022-09-28T02:19:20.318Z,0.60
2022-09-28T02:21:54.689Z,0.67
2022-09-28T02:25:00.015Z,0.57
2022-09-28T02:27:32.062Z,0.60
2022-09-28T02:29:58.392Z,0.50
2022-09-28T02:32:25.723Z,0.63
2022-09-28T02:34:52.090Z,0.60
2022-09-28T02:37:18.392Z,0.73
2022-09-28T02:39:44.699Z,0.50
2022-09-28T02:42:20.281Z,0.60
2022-09-28T02:45:08.375Z,0.67
2022-09-28T02:47:56.538Z,0.50
2022-09-28T02:51:00.820Z,0.60
2022-09-28T02:53:45.882Z,0.60
2022-09-28T02:56:25.986Z,0.70
2022-09-28T02:59:17.283Z,0.50
2022-09-28T03:01:53.614Z,0.50
2022-09-28T03:04:28.603Z,0.50
2022-09-28T03:07:05.881Z,0.60
2022-09-28T03:09:40.154Z,0.53
2022-09-28T03:12:11.554Z,0.60
2022-09-28T03:14:37.961Z,0.57
2022-09-28T03:17:04.298Z,0.40
2022-09-28T03:19:33.111Z,0.53
2022-09-28T03:21:59.999Z,0.60
2022-09-28T03:24:26.690Z,0.60
2022-09-28T03:26:53.016Z,0.50
2022-09-28T03:29:22.099Z,0.60
2022-09-28T03:31:48.993Z,0.67
2022-09-28T03:34:15.349Z,0.60
2022-09-28T03:36:41.677Z,0.47
2022-09-28T03:39:07.983Z,0.47
2022-09-28T03:41:34.279Z,0.40
2022-09-28T03:44:00.594Z,0.60
2022-09-28T03:46:27.291Z,0.50
2022-09-28T03:48:57.138Z,0.50
2022-09-28T03:51:23.643Z,0.60
2022-09-28T03:53:49.929Z,0.50
2022-09-28T03:56:17.279Z,0.60
2022-09-28T03:58:43.579Z,0.60
2022-09-28T04:01:17.516Z,0.50
2022-09-28T04:03:44.785Z,0.60
2022-09-28T04:06:11.422Z,0.47
2022-09-28T04:08:37.718Z,0.53
2022-09-28T04:11:04.215Z,0.60
2022-09-28T04:13:30.997Z,0.50
2022-09-28T04:15:59.076Z,0.50
2022-09-28T04:18:25.420Z,0.50
2022-09-28T04:21:08.022Z,0.70
2022-09-28T04:23:39.104Z,0.50
2022-09-28T04:26:07.636Z,0.60
2022-09-28T04:28:52.651Z,0.60
2022-09-28T04:31:20.899Z,0.60
2022-09-28T04:33:47.248Z,0.60
2022-09-28T04:36:13.591Z,0.50
2022-09-28T04:38:56.028Z,0.70
2022-09-28T04:41:22.621Z,0.67
2022-09-28T04:43:49.745Z,0.60
2022-09-28T04:46:16.225Z,0.40
2022-09-28T04:48:42.563Z,0.50
2022-09-28T04:51:08.876Z,0.50
2022-09-28T04:53:35.331Z,0.70
2022-09-28T04:56:20.198Z,0.50
2022-09-28T04:58:50.402Z,0.60
2022-09-28T05:01:23.178Z,0.50
2022-09-28T05:03:50.829Z,0.60
2022-09-28T05:06:17.806Z,0.60
2022-09-28T05:08:46.668Z,0.53
2022-09-28T05:11:13.628Z,0.60
2022-09-28T05:13:42.517Z,0.80
2022-09-28T05:16:09.905Z,0.50
2022-09-28T05:18:36.245Z,0.50
2022-09-28T05:21:02.581Z,0.60
2022-09-28T05:23:28.879Z,0.67
2022-09-28T05:25:55.300Z,0.60
2022-09-28T05:28:26.599Z,0.57
2022-09-28T05:30:53.133Z,0.40
2022-09-28T05:33:19.495Z,0.50
2022-09-28T05:35:48.755Z,0.70
2022-09-28T05:38:17.414Z,0.80
2022-09-28T05:40:43.807Z,1.07
2022-09-28T05:43:10.127Z,0.87
2022-09-28T05:45:36.494Z,1.23
2022-09-28T05:48:02.881Z,1.13
2022-09-28T05:50:29.179Z,1.10
2022-09-28T05:53:06.653Z,1.10
2022-09-28T05:55:33.564Z,1.10
2022-09-28T05:58:04.859Z,1.07
2022-09-28T06:00:34.420Z,1.00
2022-09-28T06:03:06.677Z,0.87
2022-09-28T06:05:36.113Z,0.80
2022-09-28T06:08:04.965Z,1.30
2022-09-28T06:10:31.877Z,0.70
2022-09-28T06:12:58.469Z,0.80
2022-09-28T06:15:26.939Z,0.90
2022-09-28T06:17:57.601Z,0.80
2022-09-28T06:20:24.889Z,0.83
2022-09-28T06:22:52.852Z,0.70
2022-09-28T06:25:19.416Z,1.07
2022-09-28T06:28:13.859Z,0.90
2022-09-28T06:30:41.060Z,0.70
2022-09-28T06:33:08.395Z,0.50
2022-09-28T06:35:34.890Z,0.87
2022-09-28T06:38:01.900Z,0.80
2022-09-28T06:40:28.455Z,1.00
2022-09-28T06:43:03.356Z,0.77
2022-09-28T06:45:30.301Z,1.07
2022-09-28T06:47:58.554Z,0.70
2022-09-28T06:50:26.186Z,0.73
2022-09-28T06:52:54.063Z,0.70
2022-09-28T06:55:21.534Z,0.70
2022-09-28T06:57:48.581Z,0.70
2022-09-28T07:00:15.317Z,0.90
2022-09-28T07:02:41.685Z,0.77
2022-09-28T07:05:10.914Z,0.70
2022-09-28T07:07:37.211Z,0.70
2022-09-28T07:10:03.942Z,0.83
2022-09-28T07:12:32.121Z,0.70
2022-09-28T07:14:58.455Z,0.80
2022-09-28T07:17:24.773Z,1.00
2022-09-28T07:19:52.523Z,0.80
2022-09-28T07:22:36.241Z,0.87
2022-09-28T07:25:07.263Z,0.83
2022-09-28T07:27:35.079Z,0.80
2022-09-28T07:30:01.389Z,0.83
2022-09-28T07:32:28.421Z,0.70
2022-09-28T07:34:58.840Z,0.80
2022-09-28T07:37:26.431Z,0.77
2022-09-28T07:40:11.582Z,0.80
2022-09-28T07:42:38.206Z,0.70
2022-09-28T07:45:06.860Z,0.60
2022-09-28T07:47:35.298Z,0.70
2022-09-28T07:50:01.864Z,0.70
2022-09-28T07:52:28.706Z,0.73
2022-09-28T07:54:56.035Z,0.70
2022-09-28T07:57:23.082Z,0.70
2022-09-28T07:59:49.698Z,0.60
2022-09-28T08:02:21.139Z,0.80
2022-09-28T08:04:48.431Z,0.70
2022-09-28T08:07:17.125Z,0.65
2022-09-28T08:09:45.967Z,0.50
2022-09-28T08:12:13.730Z,0.98
2022-09-28T08:14:40.306Z,0.82
2022-09-28T08:17:07.404Z,0.68
2022-09-28T08:19:53.175Z,0.70
2022-09-28T08:22:20.020Z,0.80
2022-09-28T08:24:47.365Z,0.70
2022-09-28T08:27:15.248Z,0.70
2022-09-28T08:29:42.910Z,0.70
2022-09-28T08:32:10.026Z,0.70
2022-09-28T08:34:40.263Z,0.90
2022-09-28T08:37:08.951Z,0.80
2022-09-28T08:39:36.067Z,0.80
2022-09-28T08:42:20.891Z,0.77
2022-09-28T08:44:50.998Z,0.60
2022-09-28T08:47:40.483Z,0.60
2022-09-28T08:50:07.866Z,0.65
2022-09-28T08:52:38.882Z,0.60
2022-09-28T08:55:16.461Z,0.80
2022-09-28T08:57:59.270Z,0.60
2022-09-28T09:00:47.325Z,0.75
2022-09-28T09:03:16.590Z,0.70
2022-09-28T09:05:48.607Z,0.80
2022-09-28T09:08:30.983Z,0.60
2022-09-28T09:11:26.187Z,0.75
2022-09-28T09:14:02.961Z,0.57
2022-09-28T09:17:00.374Z,0.80
2022-09-28T09:19:37.515Z,0.65
2022-09-28T09:22:48.470Z,0.73
2022-09-28T09:25:35.378Z,0.73
2022-09-28T09:28:28.431Z,0.70
2022-09-28T09:31:27.039Z,0.60
2022-09-28T09:34:05.138Z,0.80
2022-09-28T09:36:57.778Z,0.70
2022-09-28T09:39:39.034Z,0.77
2022-09-28T09:42:26.891Z,0.63
2022-09-28T09:45:39.812Z,0.60
2022-09-28T09:48:29.773Z,0.75
2022-09-28T09:50:59.747Z,0.70
2022-09-28T09:53:40.770Z,0.80
2022-09-28T09:56:13.179Z,0.75
2022-09-28T09:58:47.862Z,0.80
2022-09-28T10:01:16.933Z,0.80
2022-09-28T10:03:45.361Z,0.75
2022-09-28T10:06:19.544Z,0.70
2022-09-28T10:08:53.730Z,0.70
2022-09-28T10:11:25.977Z,0.65
2022-09-28T10:13:52.910Z,0.70
2022-09-28T10:16:19.707Z,0.60
2022-09-28T10:18:46.179Z,0.70
2022-09-28T10:21:17.195Z,0.70
2022-09-28T10:23:44.658Z,0.60
2022-09-28T10:26:16.015Z,0.70
2022-09-28T10:28:50.483Z,0.77
2022-09-28T10:31:40.318Z,0.80
2022-09-28T10:34:08.463Z,0.80
2022-09-28T10:36:46.572Z,0.70
2022-09-28T10:39:40.947Z,0.80
2022-09-28T10:42:12.512Z,0.73
2022-09-28T10:45:20.766Z,0.65
2022-09-28T10:47:47.218Z,0.85
2022-09-28T10:50:21.626Z,0.70
2022-09-28T10:52:47.997Z,0.70
2022-09-28T10:55:20.486Z,0.70
2022-09-28T10:57:47.995Z,0.77
2022-09-28T11:00:34.647Z,0.60
2022-09-28T11:03:02.176Z,0.60
2022-09-28T11:05:28.861Z,0.60
2022-09-28T11:07:57.083Z,0.52
2022-09-28T11:10:26.026Z,0.60
2022-09-28T11:12:53.316Z,0.60
2022-09-28T11:15:22.251Z,0.80
2022-09-28T11:17:48.558Z,0.70
2022-09-28T11:20:27.507Z,0.77
2022-09-28T11:22:56.823Z,0.65
2022-09-28T11:25:28.666Z,0.73
2022-09-28T11:27:55.877Z,0.70
2022-09-28T11:30:38.432Z,0.70
2022-09-28T11:33:35.113Z,0.68
2022-09-28T11:36:28.511Z,0.73
2022-09-28T11:39:17.918Z,0.60
2022-09-28T11:41:59.501Z,0.57
2022-09-28T11:44:29.469Z,0.55
2022-09-28T11:47:27.699Z,0.60
2022-09-28T11:49:58.782Z,0.77
2022-09-28T11:52:36.387Z,0.75
2022-09-28T11:55:17.622Z,0.70
2022-09-28T11:57:46.658Z,0.60
2022-09-28T12:00:14.845Z,0.70
2022-09-28T12:03:04.742Z,0.63
2022-09-28T12:05:37.935Z,0.80
2022-09-28T12:08:30.983Z,0.90
2022-09-28T12:11:20.502Z,0.60
2022-09-28T12:13:49.141Z,0.73
2022-09-28T12:16:46.851Z,0.60
2022-09-28T12:19:22.835Z,0.80
2022-09-28T12:21:51.287Z,0.90
2022-09-28T12:24:29.838Z,0.70
2022-09-28T12:27:04.801Z,0.80
2022-09-28T12:29:55.137Z,0.60
2022-09-28T12:32:31.361Z,0.80
2022-09-28T12:34:58.139Z,0.70
2022-09-28T12:38:08.549Z,0.73
2022-09-28T12:40:44.646Z,0.73
2022-09-28T12:43:13.874Z,0.73
2022-09-28T12:46:09.873Z,0.60
2022-09-28T12:49:56.599Z,0.70
2022-09-28T12:52:15.349Z,0.77
2022-09-28T12:55:15.058Z,0.60
2022-09-28T12:58:29.469Z,0.73
2022-09-28T13:01:48.427Z,0.77
2022-09-28T13:04:27.136Z,0.60
2022-09-28T13:06:59.074Z,0.60
2022-09-28T13:09:26.535Z,1.77
2022-09-28T13:12:15.846Z,1.00
2022-09-28T13:15:04.390Z,0.87
2022-09-28T13:17:40.685Z,0.80
2022-09-28T13:20:32.781Z,0.70
2022-09-28T13:23:05.350Z,1.00
2022-09-28T13:25:36.002Z,0.90
2022-09-28T13:28:06.521Z,0.60
2022-09-28T13:30:35.082Z,0.70
2022-09-28T13:33:03.634Z,0.60
2022-09-28T13:35:30.210Z,0.77
2022-09-28T13:38:16.126Z,0.70
2022-09-28T13:41:04.339Z,1.13
2022-09-28T13:44:01.551Z,0.80
2022-09-28T13:46:47.724Z,0.90
2022-09-28T13:49:39.575Z,0.70
2022-09-28T13:52:09.816Z,0.70
2022-09-28T13:55:08.981Z,0.70
2022-09-28T13:57:43.743Z,0.63
2022-09-28T14:00:21.791Z,0.70
2022-09-28T14:02:53.553Z,0.90
2022-09-28T14:05:22.852Z,0.70
2022-09-28T14:08:13.971Z,0.67
2022-09-28T14:10:57.627Z,0.65
2022-09-28T14:13:42.433Z,0.80
2022-09-28T14:16:17.650Z,0.65
2022-09-28T14:19:09.504Z,0.90
2022-09-28T14:22:00.446Z,0.80
2022-09-28T14:24:49.937Z,0.85
2022-09-28T14:27:43.666Z,1.05
2022-09-28T14:30:12.988Z,0.70
2022-09-28T14:32:41.299Z,1.13
2022-09-28T14:35:27.141Z,1.00
2022-09-28T14:38:17.573Z,1.00
2022-09-28T14:41:09.846Z,1.08
2022-09-28T14:43:45.110Z,0.85
2022-09-28T14:46:11.539Z,0.98
2022-09-28T14:48:43.870Z,0.60
2022-09-28T14:51:32.950Z,1.00
2022-09-28T14:54:05.790Z,1.00
2022-09-28T14:56:39.881Z,1.00
2022-09-28T14:59:07.277Z,0.85
2022-09-28T15:01:35.957Z,1.20
2022-09-28T15:04:04.582Z,1.00
2022-09-28T15:06:45.336Z,1.00
2022-09-28T15:09:37.907Z,1.05
2022-09-28T15:12:08.841Z,0.98
2022-09-28T15:14:43.147Z,0.88
2022-09-28T15:17:10.759Z,0.93
2022-09-28T15:20:05.770Z,0.95
2022-09-28T15:22:33.433Z,1.00
2022-09-28T15:25:02.967Z,1.05
2022-09-28T15:27:37.287Z,0.90
2022-09-28T15:30:25.371Z,1.02
2022-09-28T15:32:56.456Z,1.00
2022-09-28T15:35:26.181Z,1.00
2022-09-28T15:37:54.183Z,0.88
2022-09-28T15:40:40.799Z,0.80
2022-09-28T15:43:23.979Z,1.00
2022-09-28T15:46:04.978Z,0.95
2022-09-28T15:48:40.559Z,0.80
2022-09-28T15:51:11.557Z,1.00
2022-09-28T15:53:43.078Z,0.88
2022-09-28T15:56:11.660Z,0.85
2022-09-28T15:58:38.783Z,1.00
2022-09-28T16:01:35.942Z,1.05
2022-09-28T16:04:30.257Z,0.75
2022-09-28T16:07:18.532Z,1.00
2022-09-28T16:10:06.077Z,0.80
2022-09-28T16:12:41.522Z,0.80
2022-09-28T16:15:30.461Z,0.90
2022-09-28T16:18:02.507Z,0.88
2022-09-28T16:20:41.099Z,0.70
2022-09-28T16:23:16.478Z,0.85
2022-09-28T16:25:51.748Z,0.95
2022-09-28T16:28:48.860Z,0.90
2022-09-28T16:31:15.192Z,1.00
2022-09-28T16:34:11.388Z,0.95
2022-09-28T16:36:45.131Z,0.90
2022-09-28T16:39:18.985Z,1.02
2022-09-28T16:41:48.823Z,1.00
2022-09-28T16:44:25.997Z,0.90
2022-09-28T16:46:55.057Z,0.80
2022-09-28T16:49:23.655Z,0.87
2022-09-28T16:51:49.942Z,0.80
2022-09-28T16:54:40.042Z,0.80
2022-09-28T16:57:08.319Z,0.82
2022-09-28T16:59:34.632Z,0.80
2022-09-28T17:02:01.079Z,0.90
2022-09-28T17:04:27.416Z,0.93
2022-09-28T17:06:55.400Z,1.00
2022-09-28T17:09:22.442Z,1.00
2022-09-28T17:11:49.350Z,0.80
2022-09-28T17:14:15.703Z,0.70
2022-09-28T17:17:06.971Z,0.85
2022-09-28T17:19:31.151Z,1.00
2022-09-28T17:21:57.438Z,1.10
2022-09-28T17:24:23.737Z,0.83
2022-09-28T17:26:51.166Z,1.02
2022-09-28T17:29:18.431Z,0.88
2022-09-28T17:31:45.842Z,0.80
2022-09-28T17:34:15.997Z,0.83
2022-09-28T17:36:43.355Z,0.70
2022-09-28T17:39:12.535Z,0.73
2022-09-28T17:41:39.749Z,0.90
2022-09-28T17:44:06.495Z,0.77
2022-09-28T17:46:36.124Z,0.63
2022-09-28T17:49:04.875Z,0.60
2022-09-28T17:51:34.538Z,0.80
2022-09-28T17:54:01.214Z,0.80
2022-09-28T17:56:31.870Z,0.77
2022-09-28T17:59:00.507Z,0.70
2022-09-28T18:01:33.497Z,0.80
2022-09-28T18:04:04.791Z,0.90
2022-09-28T18:06:33.383Z,1.10
2022-09-28T18:08:59.855Z,0.80
2022-09-28T18:11:26.258Z,0.80
2022-09-28T18:13:52.542Z,0.90
2022-09-28T18:16:19.321Z,0.80
2022-09-28T18:18:47.307Z,1.10
2022-09-28T18:21:13.594Z,1.00
2022-09-28T18:23:39.964Z,0.80
2022-09-28T18:26:13.722Z,0.93
2022-09-28T18:28:40.130Z,0.90
2022-09-28T18:31:08.436Z,1.03
2022-09-28T18:33:35.278Z,0.90
2022-09-28T18:36:01.916Z,0.90
2022-09-28T18:38:28.209Z,0.90
2022-09-28T18:40:56.077Z,0.90
2022-09-28T18:43:22.945Z,0.80
2022-09-28T18:45:49.276Z,0.80
2022-09-28T18:48:15.600Z,0.90
2022-09-28T18:50:42.617Z,0.90
2022-09-28T18:53:11.848Z,1.00
2022-09-28T18:55:42.512Z,0.90
2022-09-28T18:58:09.967Z,1.10
2022-09-28T19:00:40.354Z,1.00
2022-09-28T19:03:07.481Z,0.90
2022-09-28T19:05:34.932Z,0.80
2022-09-28T19:08:01.521Z,0.90
2022-09-28T19:10:27.896Z,0.80
2022-09-28T19:12:54.439Z,0.90
2022-09-28T19:15:22.467Z,1.00
2022-09-28T19:17:49.863Z,1.10
2022-09-28T19:20:16.779Z,0.90
2022-09-28T19:22:44.058Z,0.90
2022-09-28T19:25:10.782Z,1.00
2022-09-28T19:27:37.082Z,0.80
2022-09-28T19:30:03.853Z,0.90
2022-09-28T19:32:30.138Z,1.00
2022-09-28T19:34:56.439Z,0.90
2022-09-28T19:37:22.724Z,1.23
2022-09-28T19:39:49.033Z,0.90
2022-09-28T19:42:15.339Z,1.10
2022-09-28T19:44:41.751Z,1.10
2022-09-28T19:47:09.793Z,1.10
2022-09-28T19:49:38.696Z,1.10
2022-09-28T19:52:15.469Z,1.17
2022-09-28T19:54:55.583Z,1.00
2022-09-28T19:57:27.634Z,1.10
2022-09-28T19:59:57.863Z,1.20
2022-09-28T20:02:27.449Z,1.20
2022-09-28T20:04:53.819Z,1.20
2022-09-28T20:07:20.556Z,1.10
2022-09-28T20:09:46.947Z,0.93
2022-09-28T20:12:13.227Z,1.30
2022-09-28T20:14:40.603Z,1.20
2022-09-28T20:17:07.341Z,1.37
2022-09-28T20:19:33.701Z,1.23
2022-09-28T20:22:02.753Z,1.37
2022-09-28T20:24:29.457Z,2.30
2022-09-28T20:26:55.821Z,1.60
2022-09-28T20:29:22.195Z,1.37
2022-09-28T20:31:48.510Z,1.57
2022-09-28T20:34:14.835Z,1.20
2022-09-28T20:36:44.443Z,1.80
2022-09-28T20:39:11.437Z,1.47
2022-09-28T20:41:37.808Z,1.30
2022-09-28T20:44:06.129Z,1.60
2022-09-28T20:46:34.007Z,1.57
2022-09-28T20:49:00.537Z,1.60
2022-09-28T20:51:26.890Z,1.30
2022-09-28T20:53:57.662Z,1.30
2022-09-28T20:56:26.916Z,1.50
2022-09-28T20:58:54.281Z,1.60
2022-09-28T21:01:28.540Z,1.40
2022-09-28T21:03:57.149Z,1.60
2022-09-28T21:06:26.122Z,1.73
2022-09-28T21:08:52.691Z,1.60
2022-09-28T21:11:23.299Z,1.67
2022-09-28T21:13:54.403Z,1.53
2022-09-28T21:16:21.133Z,1.53
2022-09-28T21:18:47.828Z,1.40
2022-09-28T21:21:16.294Z,1.47
2022-09-28T21:23:45.770Z,1.43
2022-09-28T21:26:26.100Z,1.30
2022-09-28T21:28:56.482Z,1.80
2022-09-28T21:31:28.466Z,1.23
2022-09-28T21:33:55.127Z,1.30
2022-09-28T21:36:21.470Z,1.30
2022-09-28T21:38:47.764Z,1.47
2022-09-28T21:41:14.063Z,2.07
2022-09-28T21:43:40.422Z,1.47
2022-09-28T21:46:06.794Z,1.50
2022-09-28T21:48:33.157Z,1.53
2022-09-28T21:51:04.899Z,1.20
2022-09-28T21:53:33.011Z,1.30
2022-09-28T21:56:00.142Z,1.33
2022-09-28T21:58:28.824Z,1.20
2022-09-28T22:01:17.809Z,1.60
2022-09-28T22:03:47.235Z,1.20
2022-09-28T22:06:15.154Z,1.20
2022-09-28T22:08:41.463Z,1.37
2022-09-28T22:11:13.276Z,1.40
2022-09-28T22:13:42.115Z,1.57
2022-09-28T22:16:09.394Z,1.40
2022-09-28T22:18:36.119Z,1.40
2022-09-28T22:21:10.847Z,1.30
2022-09-28T22:23:37.982Z,1.23
2022-09-28T22:26:11.011Z,1.40
2022-09-28T22:28:38.715Z,1.40
2022-09-28T22:31:05.567Z,1.30
2022-09-28T22:33:31.924Z,1.20
2022-09-28T22:35:58.171Z,1.30
2022-09-28T22:38:24.714Z,1.20
2022-09-28T22:40:55.648Z,1.20
2022-09-28T22:43:26.032Z,1.30
2022-09-28T22:46:03.349Z,1.30
2022-09-28T22:48:29.911Z,1.30
2022-09-28T22:50:56.236Z,1.50
2022-09-28T22:53:22.683Z,1.40
2022-09-28T22:55:49.049Z,1.30
2022-09-28T22:58:15.386Z,1.20
2022-09-28T23:00:42.339Z,1.07
2022-09-28T23:03:08.985Z,1.20
2022-09-28T23:05:35.577Z,1.27
2022-09-28T23:08:01.889Z,1.20
2022-09-28T23:10:28.190Z,1.20
2022-09-28T23:12:54.826Z,1.20
2022-09-28T23:15:22.228Z,1.20
2022-09-28T23:17:55.099Z,1.40
2022-09-28T23:20:21.748Z,1.30
2022-09-28T23:22:48.704Z,1.30
2022-09-28T23:25:16.478Z,1.27
2022-09-28T23:27:47.847Z,1.33
2022-09-28T23:30:15.510Z,1.30
2022-09-28T23:32:42.343Z,1.30
2022-09-28T23:35:09.347Z,1.20
2022-09-28T23:37:35.743Z,1.10
2022-09-28T23:40:03.467Z,1.10
2022-09-28T23:42:29.952Z,1.20
2022-09-28T23:44:56.307Z,1.20
2022-09-28T23:47:22.603Z,1.30
2022-09-28T23:49:48.899Z,1.30
2022-09-28T23:52:15.220Z,1.30
2022-09-28T23:54:41.507Z,1.23
2022-09-28T23:57:07.797Z,1.30
2022-09-28T23:59:34.082Z,1.50
